Time;durP1;ratioP1;P1;durP2;ratioP2;P2;SDS_P1;SDS_P2;PMS_P1;PMS_P2;Temp;Humidity;BMP_temperature;BMP_pressure;BME280_temperature;BME280_humidity;BME280_pressure;Samples;Min_cycle;Max_cycle;Signal;HPM_P1;HPM_P2
2023/12/21 01:29:33;;;;;;;16.10;9.70;;;;;;;7.01;100.00;99991.00;102771;1289;617336;-76
2023/12/21 01:32:00;;;;;;;16.50;9.70;;;;;;;6.97;100.00;99991.55;105034;1269;61209;-75
2023/12/21 01:34:27;;;;;;;12.90;9.60;;;;;;;6.96;100.00;99990.23;105016;1266;59330;-76
2023/12/21 01:36:54;;;;;;;13.70;8.30;;;;;;;6.93;100.00;99988.31;105786;1256;73478;-77
2023/12/21 01:39:21;;;;;;;12.90;9.30;;;;;;;6.90;100.00;99987.83;105785;1256;63910;-77
2023/12/21 01:41:50;;;;;;;14.90;8.40;;;;;;;6.86;100.00;99978.64;105783;1252;183031;-77
2023/12/21 01:44:17;;;;;;;11.30;8.30;;;;;;;6.81;100.00;99975.05;106061;1255;61145;-77
2023/12/21 01:46:44;;;;;;;12.40;8.70;;;;;;;6.77;100.00;99968.70;106018;1255;59236;-78
2023/12/21 01:49:11;;;;;;;13.40;9.20;;;;;;;6.70;100.00;99960.89;105922;1250;72155;-76
2023/12/21 01:51:38;;;;;;;18.20;10.00;;;;;;;6.64;100.00;99960.03;105835;1256;63790;-77
2023/12/21 01:54:07;;;;;;;12.60;9.80;;;;;;;6.59;100.00;99958.39;106062;1250;72672;-76
2023/12/21 01:56:34;;;;;;;14.30;10.80;;;;;;;6.56;100.00;99962.37;106292;1255;61196;-77
2023/12/21 01:59:01;;;;;;;14.90;9.90;;;;;;;6.54;100.00;99955.72;105995;1250;59653;-78
2023/12/21 02:01:29;;;;;;;17.70;11.80;;;;;;;6.51;100.00;99950.33;106002;1255;73042;-76
2023/12/21 02:03:55;;;;;;;19.70;12.50;;;;;;;6.44;100.00;99943.20;105877;1255;63972;-78
2023/12/21 02:06:24;;;;;;;21.10;13.00;;;;;;;6.38;100.00;99936.95;106062;1251;72570;-79
2023/12/21 02:08:50;;;;;;;19.10;13.80;;;;;;;6.31;100.00;99929.70;106056;1257;61149;-76
2023/12/21 02:11:17;;;;;;;20.60;14.00;;;;;;;6.24;100.00;99929.69;105942;1250;60304;-77
2023/12/21 02:13:45;;;;;;;19.40;14.70;;;;;;;6.17;100.00;99930.25;106022;1254;72890;-78
2023/12/21 02:16:15;;;;;;;20.30;14.00;;;;;;;6.09;100.00;99930.47;105888;1250;62941;-80
2023/12/21 02:18:42;;;;;;;18.00;13.60;;;;;;;6.03;100.00;99924.55;105981;1254;72466;-78
2023/12/21 02:21:09;;;;;;;20.00;13.80;;;;;;;5.99;100.00;99920.24;106018;1255;60989;-77
2023/12/21 02:23:37;;;;;;;17.90;13.00;;;;;;;5.97;100.00;99918.62;105969;1256;59708;-76
2023/12/21 02:26:04;;;;;;;17.30;13.00;;;;;;;5.96;100.00;99921.64;105985;1256;72962;-77
2023/12/21 02:28:31;;;;;;;17.90;13.30;;;;;;;5.95;100.00;99921.86;106124;1251;64189;-75
2023/12/21 02:30:58;;;;;;;17.60;13.00;;;;;;;5.94;100.00;99916.31;106565;1253;71624;-77
2023/12/21 02:33:25;;;;;;;15.90;11.50;;;;;;;5.97;100.00;99918.11;105961;1250;59734;-79
2023/12/21 02:35:51;;;;;;;18.00;13.30;;;;;;;5.99;100.00;99922.31;106208;1253;59625;-77
2023/12/21 02:38:18;;;;;;;16.80;13.10;;;;;;;6.03;100.00;99923.85;106052;1253;72877;-77
2023/12/21 02:40:45;;;;;;;16.40;11.80;;;;;;;6.06;100.00;99918.86;106284;1254;63925;-78
2023/12/21 02:43:12;;;;;;;17.30;13.00;;;;;;;6.09;100.00;99919.22;106062;1255;72645;-74
2023/12/21 02:45:39;;;;;;;16.80;12.60;;;;;;;6.11;100.00;99923.23;106315;1254;61077;-76
2023/12/21 02:48:06;;;;;;;16.40;11.50;;;;;;;6.13;100.00;99921.61;105913;1251;60198;-78
2023/12/21 02:50:33;;;;;;;16.50;13.60;;;;;;;6.16;100.00;99924.38;105928;1255;73211;-78
2023/12/21 02:53:00;;;;;;;16.90;12.40;;;;;;;6.20;100.00;99923.48;105937;1256;63680;-77
2023/12/21 02:55:29;;;;;;;15.10;11.60;;;;;;;6.24;100.00;99924.14;106020;1254;72669;-77
2023/12/21 02:57:56;;;;;;;15.90;12.10;;;;;;;6.28;100.00;99919.27;105920;1256;61204;-76
2023/12/21 03:00:24;;;;;;;15.80;11.30;;;;;;;6.30;100.00;99912.70;105965;1255;60288;-77
2023/12/21 03:02:51;;;;;;;16.60;12.80;;;;;;;6.33;100.00;99914.67;105956;1251;73042;-76
2023/12/21 03:05:18;;;;;;;15.30;11.70;;;;;;;6.33;100.00;99921.38;106036;1256;63860;-77
2023/12/21 03:07:45;;;;;;;15.10;10.80;;;;;;;6.33;100.00;99918.48;105949;1253;72672;-76
2023/12/21 03:10:12;;;;;;;12.80;11.00;;;;;;;6.34;100.00;99922.02;105846;1254;61078;-76
2023/12/21 03:12:39;;;;;;;15.60;12.40;;;;;;;6.38;100.00;99919.95;105920;1254;60359;-75
2023/12/21 03:15:07;;;;;;;14.30;11.60;;;;;;;6.41;100.00;99927.90;106016;1252;73106;-76
2023/12/21 03:17:34;;;;;;;15.80;12.10;;;;;;;6.45;100.00;99931.86;106721;1256;63833;-76
2023/12/21 03:20:03;;;;;;;13.70;11.60;;;;;;;6.49;100.00;99929.95;108472;1250;72487;-77
2023/12/21 03:22:30;;;;;;;20.00;13.40;;;;;;;6.52;100.00;99930.11;109343;1254;59846;-75
2023/12/21 03:24:57;;;;;;;13.80;11.00;;;;;;;6.55;100.00;99928.03;108835;1250;59168;-75
2023/12/21 03:27:24;;;;;;;15.70;12.20;;;;;;;6.56;100.00;99923.84;106958;1255;71672;-76
2023/12/21 03:29:54;;;;;;;13.10;10.20;;;;;;;6.54;100.00;99920.65;107796;1250;62327;-77
2023/12/21 03:32:20;;;;;;;14.50;11.40;;;;;;;6.51;100.00;99919.73;106234;1251;71523;-78
2023/12/21 03:34:49;;;;;;;14.50;11.60;;;;;;;6.49;100.00;99918.80;106186;1256;61533;-75
2023/12/21 03:37:16;;;;;;;14.10;11.20;;;;;;;6.49;100.00;99918.80;105941;1251;60350;-77
2023/12/21 03:39:42;;;;;;;12.90;11.60;;;;;;;6.49;100.00;99919.48;106029;1255;72971;-77
2023/12/21 03:42:09;;;;;;;12.90;10.60;;;;;;;6.51;100.00;99913.68;106009;1253;63839;-78
2023/12/21 03:44:36;;;;;;;14.10;11.90;;;;;;;6.52;100.00;99908.05;105918;1257;72744;-78
2023/12/21 03:47:03;;;;;;;14.10;10.90;;;;;;;6.53;100.00;99905.90;106033;1255;61056;-76
2023/12/21 03:49:30;;;;;;;13.60;10.30;;;;;;;6.54;100.00;99901.70;105935;1257;60376;-78
2023/12/21 03:51:57;;;;;;;14.20;10.30;;;;;;;6.55;100.00;99905.45;106038;1255;72921;-76
2023/12/21 03:54:24;;;;;;;13.90;10.00;;;;;;;6.56;100.00;99905.78;105945;1254;63834;-77
2023/12/21 03:56:51;;;;;;;14.80;10.10;;;;;;;6.56;100.00;99900.89;106042;1255;72659;-77
2023/12/21 03:59:19;;;;;;;12.70;9.70;;;;;;;6.57;100.00;99902.20;105909;1255;61047;-76
2023/12/21 04:01:45;;;;;;;11.60;9.30;;;;;;;6.57;100.00;99904.62;106053;1256;59673;-78
2023/12/21 04:04:12;;;;;;;14.60;11.20;;;;;;;6.59;100.00;99905.92;105982;1255;72961;-76
2023/12/21 04:06:39;;;;;;;11.70;8.90;;;;;;;6.57;100.00;99903.08;105979;1254;63920;-76
2023/12/21 04:09:06;;;;;;;12.80;9.60;;;;;;;6.56;100.00;99903.49;105854;1255;72770;-76
2023/12/21 04:11:33;;;;;;;12.70;10.00;;;;;;;6.54;100.00;99904.80;105992;1255;61015;-75
2023/12/21 04:14:00;;;;;;;12.10;8.70;;;;;;;6.52;100.00;99899.02;105889;1251;60191;-76
2023/12/21 04:16:28;;;;;;;11.30;9.30;;;;;;;6.50;100.00;99895.14;106092;1254;73042;-77
2023/12/21 04:18:56;;;;;;;12.10;8.60;;;;;;;6.49;100.00;99893.83;106071;1256;62560;-75
2023/12/21 04:21:31;;;;;;;13.40;10.20;;;;;;;6.48;100.00;99895.41;106114;1254;72726;-77
2023/12/21 04:23:58;;;;;;;14.10;9.30;;;;;;;6.48;100.00;99895.63;106057;1254;61191;-75
2023/12/21 04:26:26;;;;;;;12.40;9.30;;;;;;;6.48;100.00;99898.23;105999;1251;60369;-77
2023/12/21 04:28:52;;;;;;;13.70;9.80;;;;;;;6.49;100.00;99901.81;105896;1252;71664;-77
2023/12/21 04:31:20;;;;;;;15.10;10.60;;;;;;;6.51;100.00;99907.43;106060;1256;63855;-78
2023/12/21 04:33:49;;;;;;;13.40;9.30;;;;;;;6.51;100.00;99908.12;105912;1254;72653;-78
2023/12/21 04:36:16;;;;;;;11.80;9.10;;;;;;;6.50;100.00;99905.37;106007;1255;61314;-78
2023/12/21 04:38:43;;;;;;;15.40;10.00;;;;;;;6.51;100.00;99908.10;106089;1256;60163;-77
2023/12/21 04:41:11;;;;;;;14.00;9.90;;;;;;;6.52;100.00;99906.15;105967;1250;72833;-78
2023/12/21 04:43:37;;;;;;;14.10;10.00;;;;;;;6.53;100.00;99898.98;105964;1250;61326;-79
2023/12/21 04:46:05;;;;;;;12.90;10.30;;;;;;;6.53;100.00;99895.15;105953;1254;72688;-78
2023/12/21 04:48:32;;;;;;;15.50;11.10;;;;;;;6.53;100.00;99888.91;105849;1255;61101;-77
2023/12/21 04:51:00;;;;;;;11.10;9.30;;;;;;;6.52;100.00;99882.33;106029;1256;60404;-76
2023/12/21 04:53:27;;;;;;;13.20;9.70;;;;;;;6.52;100.00;99884.09;106024;1256;72128;-76
2023/12/21 04:55:54;;;;;;;17.80;11.40;;;;;;;6.51;100.00;99883.95;105984;1255;63891;-77
2023/12/21 04:58:21;;;;;;;18.10;11.50;;;;;;;6.50;100.00;99884.71;105875;1257;72495;-77
2023/12/21 05:00:50;;;;;;;13.70;11.70;;;;;;;6.50;100.00;99885.27;106008;1255;61233;-78
2023/12/21 05:03:19;;;;;;;16.10;11.90;;;;;;;6.48;100.00;99891.26;106037;1255;59622;-78
2023/12/21 05:05:46;;;;;;;15.00;11.00;;;;;;;6.46;100.00;99893.10;106002;1254;71043;-77
2023/12/21 05:08:13;;;;;;;13.50;10.70;;;;;;;6.45;100.00;99890.55;106114;1263;62397;-76
2023/12/21 05:10:41;;;;;;;15.80;11.30;;;;;;;6.41;100.00;99888.32;106309;1251;72696;-77
2023/12/21 05:13:08;;;;;;;15.40;12.30;;;;;;;6.37;100.00;99886.13;106467;1251;61073;-78
2023/12/21 05:15:35;;;;;;;16.50;12.00;;;;;;;6.32;100.00;99887.94;107778;1251;59608;-77
2023/12/21 05:18:02;;;;;;;17.30;10.50;;;;;;;6.28;100.00;99886.95;109448;1251;71883;-77
2023/12/21 05:20:30;;;;;;;14.30;11.30;;;;;;;6.24;100.00;99886.33;109577;1251;63266;-76
2023/12/21 05:22:59;;;;;;;14.10;11.20;;;;;;;6.20;100.00;99886.13;108682;1254;70466;-77
2023/12/21 05:25:27;;;;;;;16.70;12.50;;;;;;;6.19;100.00;99884.84;106621;1252;60389;-77
2023/12/21 05:27:55;;;;;;;18.60;12.30;;;;;;;6.17;100.00;99883.91;106773;1255;59596;-79
2023/12/21 05:30:21;;;;;;;14.10;10.90;;;;;;;6.14;100.00;99882.15;105920;1252;72946;-77
2023/12/21 05:32:48;;;;;;;17.90;12.20;;;;;;;6.11;100.00;99881.98;106030;1256;63871;-78
2023/12/21 05:35:16;;;;;;;18.10;13.10;;;;;;;6.08;100.00;99878.66;105898;1255;72784;-79
2023/12/21 05:37:43;;;;;;;25.80;15.90;;;;;;;6.07;100.00;99867.98;105847;1256;60542;-78
2023/12/21 05:40:12;;;;;;;16.10;13.00;;;;;;;6.06;100.00;99866.81;105954;1255;60364;-78
2023/12/21 05:42:38;;;;;;;17.10;11.50;;;;;;;6.05;100.00;99857.48;106246;1255;73805;-78
2023/12/21 05:45:09;;;;;;;17.80;12.80;;;;;;;6.05;100.00;99851.23;105943;1255;63939;-77
2023/12/21 05:47:37;;;;;;;17.40;11.80;;;;;;;6.06;100.00;99851.56;105978;1251;71545;-78
2023/12/21 05:50:05;;;;;;;17.80;11.90;;;;;;;6.05;100.00;99843.42;105951;1263;61044;-79
2023/12/21 05:52:32;;;;;;;15.80;11.20;;;;;;;6.05;100.00;99847.26;105964;1251;60461;-77
2023/12/21 05:54:58;;;;;;;20.50;13.50;;;;;;;6.04;100.00;99842.45;105895;1256;73749;-78
2023/12/21 05:57:25;;;;;;;17.70;13.10;;;;;;;6.03;100.00;99831.75;105970;1256;63479;-79
2023/12/21 05:59:55;;;;;;;17.30;12.70;;;;;;;6.03;100.00;99822.04;106057;1254;72665;-77
2023/12/21 06:02:22;;;;;;;22.40;13.20;;;;;;;6.03;100.00;99817.67;105938;1264;61208;-77
2023/12/21 06:04:50;;;;;;;23.40;15.50;;;;;;;6.03;100.00;99815.92;105976;1254;60430;-79
2023/12/21 06:07:17;;;;;;;22.70;15.60;;;;;;;6.04;100.00;99825.81;105972;1251;73649;-78
2023/12/21 06:09:44;;;;;;;20.10;14.50;;;;;;;6.03;100.00;99826.89;105936;1256;63893;-77
2023/12/21 06:12:12;;;;;;;19.60;14.20;;;;;;;6.02;100.00;99827.60;106114;1253;72666;-78
2023/12/21 06:14:39;;;;;;;17.50;13.20;;;;;;;6.02;100.00;99804.20;106249;1256;61199;-76
2023/12/21 06:17:06;;;;;;;19.30;15.00;;;;;;;6.02;100.00;99794.98;106092;1254;60915;-78
2023/12/21 06:19:33;;;;;;;20.80;14.70;;;;;;;6.04;100.00;99791.41;105968;1256;73869;-78
2023/12/21 06:21:59;;;;;;;24.40;16.40;;;;;;;6.05;100.00;99788.42;105912;1255;63801;-78
2023/12/21 06:24:26;;;;;;;21.20;14.50;;;;;;;6.06;100.00;99789.23;106035;1250;72660;-77
2023/12/21 06:26:54;;;;;;;18.30;15.10;;;;;;;6.08;100.00;99784.64;106077;1255;61146;-78
2023/12/21 06:29:26;;;;;;;19.20;14.50;;;;;;;6.10;100.00;99779.83;106145;1254;60540;-77
2023/12/21 06:31:53;;;;;;;21.60;15.80;;;;;;;6.11;100.00;99767.43;106152;1255;74681;-78
2023/12/21 06:34:20;;;;;;;20.00;14.30;;;;;;;6.12;100.00;99765.27;106035;1263;63527;-77
2023/12/21 06:36:47;;;;;;;22.80;14.90;;;;;;;6.14;100.00;99759.63;106143;1251;71450;-77
2023/12/21 06:39:17;;;;;;;23.00;15.10;;;;;;;6.16;100.00;99762.27;105982;1256;61045;-79
2023/12/21 06:41:46;;;;;;;16.60;13.80;;;;;;;6.18;100.00;99771.90;106032;1251;60699;-77
2023/12/21 06:44:13;;;;;;;23.10;14.90;;;;;;;6.20;100.00;99773.88;105996;1255;73863;-75
2023/12/21 06:46:40;;;;;;;22.80;14.30;;;;;;;6.22;100.00;99761.61;106231;1256;64029;-78
2023/12/21 06:49:10;;;;;;;19.30;14.10;;;;;;;6.26;100.00;99759.85;106245;1251;71737;-77
2023/12/21 06:51:37;;;;;;;19.10;15.20;;;;;;;6.26;100.00;99755.67;106026;1254;61051;-76
2023/12/21 06:54:06;;;;;;;27.10;16.80;;;;;;;6.26;100.00;99750.32;106530;1254;60476;-76
2023/12/21 06:56:34;;;;;;;22.40;16.60;;;;;;;6.26;100.00;99747.69;106047;1254;73825;-78
2023/12/21 06:59:02;;;;;;;23.50;16.30;;;;;;;6.27;100.00;99747.63;105931;1251;63887;-76
2023/12/21 07:01:30;;;;;;;21.40;15.50;;;;;;;6.29;100.00;99762.08;106113;1251;72703;-76
2023/12/21 07:03:57;;;;;;;22.50;16.80;;;;;;;6.31;100.00;99757.80;105888;1255;61226;-79
2023/12/21 07:06:27;;;;;;;22.70;15.50;;;;;;;6.32;100.00;99744.94;105984;1255;60341;-80
2023/12/21 07:08:54;;;;;;;30.40;20.00;;;;;;;6.34;100.00;99743.98;105843;1254;73972;-79
2023/12/21 07:11:22;;;;;;;25.70;17.90;;;;;;;6.36;100.00;99745.58;106085;1251;63077;-79
2023/12/21 07:13:49;;;;;;;25.50;16.50;;;;;;;6.41;100.00;99740.59;105902;1251;72715;-77
2023/12/21 07:16:16;;;;;;;33.30;23.10;;;;;;;6.46;100.00;99738.55;105872;1250;61245;-79
2023/12/21 07:18:43;;;;;;;25.40;16.90;;;;;;;6.53;100.00;99747.04;105931;1255;60801;-78
2023/12/21 07:21:11;;;;;;;21.60;15.70;;;;;;;6.59;100.00;99751.73;105849;1251;73817;-77
2023/12/21 07:23:38;;;;;;;34.60;24.50;;;;;;;6.65;100.00;99759.04;106221;1254;62957;-78
2023/12/21 07:26:05;;;;;;;30.20;20.90;;;;;;;6.71;100.00;99758.34;105982;1250;71222;-78
2023/12/21 07:28:32;;;;;;;25.30;16.70;;;;;;;6.76;100.00;99756.83;105981;1254;61286;-77
2023/12/21 07:30:59;;;;;;;25.30;17.30;;;;;;;6.84;100.00;99757.40;105928;1251;60447;-77
2023/12/21 07:33:27;;;;;;;20.60;13.80;;;;;;;6.92;100.00;99752.27;105914;1254;72761;-79
2023/12/21 07:35:54;;;;;;;25.10;15.20;;;;;;;6.96;100.00;99752.14;105921;1254;64025;-77
2023/12/21 07:38:21;;;;;;;23.50;14.40;;;;;;;7.02;100.00;99758.41;106764;1251;72774;-75
2023/12/21 07:40:48;;;;;;;27.10;15.60;;;;;;;7.09;100.00;99752.09;106274;1256;60516;-76
2023/12/21 07:43:15;;;;;;;23.40;15.50;;;;;;;7.14;100.00;99744.65;105857;1250;60464;-77
2023/12/21 07:45:42;;;;;;;22.10;14.40;;;;;;;7.18;100.00;99745.29;105865;1254;73949;-78
2023/12/21 07:48:09;;;;;;;28.00;15.60;;;;;;;7.21;100.00;99746.16;106029;1254;63743;-79
2023/12/21 07:50:36;;;;;;;20.60;12.80;;;;;;;7.26;100.00;99750.76;106225;1251;72698;-78
2023/12/21 07:53:03;;;;;;;21.90;13.30;;;;;;;7.26;100.00;99743.23;106225;1256;60533;-79
2023/12/21 07:55:31;;;;;;;25.50;13.20;;;;;;;7.26;100.00;99747.11;105862;1251;60479;-78
2023/12/21 07:57:58;;;;;;;16.60;11.60;;;;;;;7.26;100.00;99751.08;105963;1254;73935;-78
2023/12/21 08:00:25;;;;;;;21.80;13.40;;;;;;;7.27;100.00;99750.86;105958;1254;63972;-77
2023/12/21 08:02:51;;;;;;;25.00;13.90;;;;;;;7.28;100.00;99749.05;106005;1251;72835;-77
2023/12/21 08:05:22;;;;;;;22.80;13.80;;;;;;;7.30;100.00;99743.17;105833;1254;60409;-77
2023/12/21 08:07:50;;;;;;;25.60;13.70;;;;;;;7.31;100.00;99746.61;105813;1255;60415;-77
2023/12/21 08:10:17;;;;;;;18.60;12.80;;;;;;;7.30;100.00;99750.13;105877;1256;73920;-78
2023/12/21 08:12:45;;;;;;;21.80;14.30;;;;;;;7.29;100.00;99751.63;105946;1254;63668;-78
2023/12/21 08:15:12;;;;;;;23.20;12.90;;;;;;;7.26;100.00;99747.92;105970;1264;72518;-78
2023/12/21 08:17:40;;;;;;;17.00;11.20;;;;;;;7.28;100.00;99742.63;105845;1254;60476;-78
2023/12/21 08:20:08;;;;;;;17.60;11.90;;;;;;;7.31;100.00;99742.81;106039;1251;60444;-78
2023/12/21 08:22:35;;;;;;;20.80;12.60;;;;;;;7.36;100.00;99740.02;106064;1251;72680;-78
2023/12/21 08:25:03;;;;;;;18.50;12.10;;;;;;;7.42;100.00;99734.47;106372;1254;63876;-76
2023/12/21 08:27:30;;;;;;;18.20;12.30;;;;;;;7.46;100.00;99731.46;106539;1251;73856;-77
2023/12/21 08:29:57;;;;;;;15.70;10.90;;;;;;;7.50;100.00;99735.20;105907;1255;61279;-78
2023/12/21 08:32:23;;;;;;;14.60;11.40;;;;;;;7.52;100.00;99727.42;105928;1252;61499;-78
2023/12/21 08:34:50;;;;;;;17.20;11.40;;;;;;;7.56;100.00;99718.16;105929;1250;73372;-78
2023/12/21 08:37:17;;;;;;;19.40;11.20;;;;;;;7.60;100.00;99719.98;105864;1254;64292;-78
2023/12/21 08:39:44;;;;;;;16.90;12.40;;;;;;;7.64;100.00;99718.35;105886;1254;71489;-78
2023/12/21 08:42:11;;;;;;;17.70;11.90;;;;;;;7.65;100.00;99719.33;105926;1254;61195;-77
2023/12/21 08:44:38;;;;;;;20.30;12.00;;;;;;;7.63;100.00;99714.88;105946;1254;60545;-78
2023/12/21 08:47:05;;;;;;;15.10;11.30;;;;;;;7.62;100.00;99721.26;105848;1254;73268;-76
2023/12/21 08:49:32;;;;;;;15.80;11.70;;;;;;;7.61;100.00;99720.80;105977;1254;63804;-77
2023/12/21 08:51:59;;;;;;;15.00;10.70;;;;;;;7.62;100.00;99720.01;105989;1251;72620;-77
2023/12/21 08:54:26;;;;;;;14.00;11.10;;;;;;;7.62;100.00;99718.59;105917;1251;60459;-80
2023/12/21 08:56:53;;;;;;;28.80;19.20;;;;;;;7.61;100.00;99716.60;105956;1251;60419;-77
2023/12/21 08:59:21;;;;;;;18.00;13.20;;;;;;;7.60;100.00;99713.16;105959;1255;73582;-75
2023/12/21 09:01:51;;;;;;;20.10;13.40;;;;;;;7.60;100.00;99713.70;106075;1251;63953;-77
2023/12/21 09:04:18;;;;;;;19.80;13.00;;;;;;;7.59;100.00;99714.48;105954;1250;70474;-76
2023/12/21 09:06:45;;;;;;;18.50;12.20;;;;;;;7.55;100.00;99704.98;105882;1255;60526;-78
2023/12/21 09:09:13;;;;;;;19.10;13.10;;;;;;;7.50;100.00;99693.27;106019;1251;60778;-77
2023/12/21 09:11:39;;;;;;;18.00;12.90;;;;;;;7.45;100.00;99691.11;106372;1251;74065;-76
2023/12/21 09:14:07;;;;;;;23.20;13.20;;;;;;;7.43;100.00;99684.98;107728;1251;63923;-76
2023/12/21 09:16:34;;;;;;;24.30;14.40;;;;;;;7.45;100.00;99683.30;108065;1250;71529;-77
2023/12/21 09:19:02;;;;;;;18.40;11.60;;;;;;;7.51;100.00;99676.39;108428;1254;61222;-77
2023/12/21 09:21:30;;;;;;;22.10;13.30;;;;;;;7.54;100.00;99668.90;108385;1250;60524;-78
2023/12/21 09:23:58;;;;;;;19.50;12.90;;;;;;;7.55;100.00;99665.98;106889;1251;72429;-77
2023/12/21 09:26:26;;;;;;;17.80;11.80;;;;;;;7.57;100.00;99662.42;106047;1254;62841;-77
2023/12/21 09:28:53;;;;;;;25.50;11.70;;;;;;;7.59;100.00;99665.60;105841;1251;72929;-77
2023/12/21 09:31:21;;;;;;;17.90;12.20;;;;;;;7.58;100.00;99669.00;105882;1254;61173;-77
2023/12/21 09:33:48;;;;;;;17.10;12.00;;;;;;;7.56;100.00;99665.27;105947;1251;60469;-77
2023/12/21 09:36:15;;;;;;;18.20;13.10;;;;;;;7.54;100.00;99662.23;105866;1254;73726;-78
2023/12/21 09:38:42;;;;;;;22.60;12.90;;;;;;;7.56;100.00;99664.05;106004;1256;63939;-78
2023/12/21 09:41:09;;;;;;;20.00;13.00;;;;;;;7.58;100.00;99663.23;106044;1254;71444;-77
2023/12/21 09:43:37;;;;;;;19.90;13.20;;;;;;;7.58;100.00;99658.14;105915;1254;62155;-76
2023/12/21 09:46:04;;;;;;;23.50;13.40;;;;;;;7.57;100.00;99660.64;105901;1251;60424;-76
2023/12/21 09:48:31;;;;;;;19.70;13.70;;;;;;;7.58;100.00;99662.35;106142;1251;73601;-77
2023/12/21 09:51:02;;;;;;;33.20;20.90;;;;;;;7.60;100.00;99653.71;106289;1254;64940;-77
2023/12/21 09:53:30;;;;;;;26.10;16.10;;;;;;;7.63;100.00;99651.45;105971;1250;72571;-76
2023/12/21 09:55:57;;;;;;;21.30;14.00;;;;;;;7.64;100.00;99644.06;106133;1254;61253;-77
2023/12/21 09:58:24;;;;;;;19.40;12.90;;;;;;;7.67;100.00;99640.90;105865;1257;60332;-75
2023/12/21 10:00:51;;;;;;;20.80;13.70;;;;;;;7.67;100.00;99638.98;106155;1250;73866;-77
2023/12/21 10:03:19;;;;;;;22.00;15.40;;;;;;;7.67;100.00;99638.96;106268;1256;63824;-76
2023/12/21 10:05:47;;;;;;;30.90;16.00;;;;;;;7.69;100.00;99638.70;106940;1254;73899;-76
2023/12/21 10:08:14;;;;;;;22.60;15.90;;;;;;;7.72;100.00;99634.69;105972;1251;62290;-78
2023/12/21 10:10:41;;;;;;;23.50;15.50;;;;;;;7.76;100.00;99630.91;105850;1250;60550;-77
2023/12/21 10:13:08;;;;;;;26.70;15.30;;;;;;;7.80;100.00;99626.02;106151;1254;73749;-78
2023/12/21 10:15:35;;;;;;;26.10;16.00;;;;;;;7.84;100.00;99631.80;106006;1254;63846;-77
2023/12/21 10:18:06;;;;;;;26.70;16.60;;;;;;;7.88;100.00;99623.20;106062;1254;72754;-77
2023/12/21 10:20:35;;;;;;;26.00;16.90;;;;;;;7.92;100.00;99621.91;105937;1254;60457;-78
2023/12/21 10:23:03;;;;;;;30.30;18.40;;;;;;;7.92;100.00;99614.94;105919;1254;60381;-77
2023/12/21 10:25:30;;;;;;;29.30;18.10;;;;;;;7.92;100.00;99606.80;105904;1251;73795;-77
2023/12/21 10:27:57;;;;;;;25.50;18.20;;;;;;;7.90;100.00;99600.80;106021;1254;63426;-79
2023/12/21 10:30:24;;;;;;;32.90;19.10;;;;;;;7.90;100.00;99590.35;105835;1250;72676;-78
2023/12/21 10:32:55;;;;;;;40.50;21.40;;;;;;;7.92;100.00;99577.18;105898;1254;61317;-78
2023/12/21 10:35:25;;;;;;;32.90;21.40;;;;;;;7.94;100.00;99567.86;105897;1255;60296;-79
2023/12/21 10:37:52;;;;;;;37.20;21.60;;;;;;;7.94;100.00;99566.27;105961;1254;74904;-78
2023/12/21 10:40:19;;;;;;;39.80;23.30;;;;;;;7.95;100.00;99565.82;105965;1251;64196;-79
2023/12/21 10:42:47;;;;;;;44.70;23.80;;;;;;;7.97;100.00;99571.25;105854;1251;72824;-78
2023/12/21 10:45:16;;;;;;;42.20;24.70;;;;;;;8.00;100.00;99571.95;106080;1254;62233;-78
2023/12/21 10:48:00;;;;;;;43.70;25.50;;;;;;;8.03;100.00;99573.84;106055;1254;61252;-78
2023/12/21 10:50:30;;;;;;;33.40;21.00;;;;;;;8.04;100.00;99576.73;105823;1256;73532;-77
2023/12/21 10:52:58;;;;;;;33.00;19.20;;;;;;;8.03;100.00;99577.66;106065;1253;63750;-77
2023/12/21 10:55:26;;;;;;;32.00;19.20;;;;;;;8.02;100.00;99582.59;106527;1250;72489;-77
2023/12/21 10:57:53;;;;;;;37.70;21.60;;;;;;;8.03;100.00;99574.72;106731;1257;61698;-77
2023/12/21 11:00:21;;;;;;;36.50;22.40;;;;;;;8.04;100.00;99567.68;109175;1250;60381;-79
2023/12/21 11:02:49;;;;;;;33.10;21.50;;;;;;;8.04;100.00;99566.80;108484;1251;72580;-78
2023/12/21 11:05:22;;;;;;;33.20;20.50;;;;;;;8.05;100.00;99561.69;106137;1254;62310;-77
2023/12/21 11:09:10;;;;;;;34.50;22.30;;;;;;;8.09;100.00;99562.98;102629;1294;601047;-76
2023/12/21 11:11:38;;;;;;;42.00;23.30;;;;;;;8.08;100.00;99563.53;104846;1266;60773;-77
2023/12/21 11:14:06;;;;;;;41.50;24.20;;;;;;;8.11;100.00;99563.74;104876;1271;60938;-78
2023/12/21 11:16:36;;;;;;;30.60;19.50;;;;;;;8.11;100.00;99557.99;104838;1267;72145;-79
2023/12/21 11:19:05;;;;;;;38.60;19.90;;;;;;;8.12;100.00;99556.05;104849;1267;62490;-78
2023/12/21 11:21:33;;;;;;;30.50;21.20;;;;;;;8.11;100.00;99558.71;104911;1269;74478;-79
2023/12/21 11:24:02;;;;;;;29.30;19.10;;;;;;;8.11;100.00;99559.05;104870;1263;174986;-79
2023/12/21 11:26:29;;;;;;;30.10;19.50;;;;;;;8.11;100.00;99557.81;104971;1263;59774;-79
2023/12/21 11:29:04;;;;;;;28.20;18.20;;;;;;;8.11;100.00;99554.52;104917;1270;71353;-78
2023/12/21 11:31:42;;;;;;;29.50;18.50;;;;;;;8.10;100.00;99556.30;105216;1264;64193;-77
2023/12/21 11:34:11;;;;;;;30.20;19.40;;;;;;;8.11;100.00;99551.22;105019;1264;74207;-78
2023/12/21 11:36:40;;;;;;;44.70;30.70;;;;;;;8.10;100.00;99548.09;104979;1264;60624;-79
2023/12/21 11:39:18;;;;;;;30.30;19.10;;;;;;;8.09;100.00;99550.65;104983;1262;59850;-78
2023/12/21 11:41:56;;;;;;;28.60;19.50;;;;;;;8.05;100.00;99550.38;105161;1263;73137;-78
2023/12/21 11:44:24;;;;;;;30.70;20.70;;;;;;;8.03;100.00;99552.27;105056;1267;62976;-79
2023/12/21 11:46:58;;;;;;;32.10;21.10;;;;;;;8.02;100.00;99550.58;105437;1268;74758;-78
2023/12/21 11:49:30;;;;;;;39.70;20.80;;;;;;;8.01;100.00;99548.91;105241;1264;59715;-77
2023/12/21 11:51:59;;;;;;;38.70;22.60;;;;;;;8.00;100.00;99547.78;105123;1263;60624;-78
2023/12/21 11:54:27;;;;;;;37.80;21.50;;;;;;;7.98;100.00;99540.58;104899;1264;75816;-79
2023/12/21 11:57:09;;;;;;;44.20;22.00;;;;;;;7.98;100.00;99541.95;104971;1269;63772;-78
2023/12/21 11:59:37;;;;;;;35.70;21.50;;;;;;;7.97;100.00;99536.65;104989;1267;70928;-77
2023/12/21 12:02:06;;;;;;;38.90;22.60;;;;;;;7.95;100.00;99539.36;105014;1268;60669;-77
2023/12/21 12:04:34;;;;;;;39.70;22.30;;;;;;;7.96;100.00;99537.74;105049;1263;60578;-78
2023/12/21 12:07:02;;;;;;;36.00;22.80;;;;;;;7.97;100.00;99540.84;104934;1268;73018;-78
2023/12/21 12:09:30;;;;;;;45.70;23.80;;;;;;;7.99;100.00;99537.24;104944;1268;63841;-77
2023/12/21 12:11:58;;;;;;;41.10;22.70;;;;;;;7.99;100.00;99540.17;105116;1263;72101;-78
2023/12/21 12:14:26;;;;;;;42.90;24.00;;;;;;;8.00;100.00;99541.13;105136;1264;60658;-79
2023/12/21 12:16:56;;;;;;;48.20;29.90;;;;;;;8.00;100.00;99541.46;105059;1263;60126;-81
2023/12/21 12:19:26;;;;;;;62.60;38.60;;;;;;;8.01;100.00;99543.38;105115;1262;75993;-78
2023/12/21 12:21:54;;;;;;;51.00;28.40;;;;;;;8.00;100.00;99541.98;104952;1269;62355;-78
2023/12/21 12:24:22;;;;;;;43.60;27.10;;;;;;;8.00;100.00;99539.24;105119;1263;71830;-79
2023/12/21 12:26:49;;;;;;;54.00;29.70;;;;;;;8.01;100.00;99539.37;104949;1268;63142;-78
2023/12/21 12:29:17;;;;;;;44.60;24.90;;;;;;;8.00;100.00;99542.55;105138;1263;62702;-79
2023/12/21 12:31:45;;;;;;;42.20;22.60;;;;;;;7.99;100.00;99539.27;105125;1268;72584;-78
2023/12/21 12:34:13;;;;;;;46.70;24.20;;;;;;;7.98;100.00;99539.69;105203;1262;63616;-77
2023/12/21 12:36:41;;;;;;;42.30;26.00;;;;;;;7.99;100.00;99542.97;105011;1264;71604;-78
2023/12/21 12:39:11;;;;;;;48.90;28.50;;;;;;;7.98;100.00;99548.05;105163;1264;62923;-77
2023/12/21 12:41:39;;;;;;;46.40;27.00;;;;;;;7.96;100.00;99553.23;105360;1259;60338;-78